Time;durP1;ratioP1;P1;durP2;ratioP2;P2;SDS_P1;SDS_P2;PMS_P1;PMS_P2;Temp;Humidity;BMP_temperature;BMP_pressure;BME280_temperature;BME280_humidity;BME280_pressure;Samples;Min_cycle;Max_cycle;Signal;HPM_P1;HPM_P2
2022/07/08 00:00:26;;;;;;;6.45;1.60;;;17.00;92.60;;;;;;4938706;28;101412;-68
2022/07/08 00:02:53;;;;;;;6.50;3.00;;;16.90;92.60;;;;;;4955185;28;100058;-68
2022/07/08 00:05:20;;;;;;;11.32;2.63;;;17.00;92.60;;;;;;4973025;28;99672;-68
2022/07/08 00:07:47;;;;;;;6.65;2.30;;;17.00;92.60;;;;;;4955972;28;98608;-68
2022/07/08 00:10:14;;;;;;;7.35;2.50;;;17.00;92.60;;;;;;4973075;28;99064;-68
2022/07/08 00:12:41;;;;;;;7.05;2.75;;;17.00;92.60;;;;;;4972799;28;99323;-68
2022/07/08 00:15:09;;;;;;;7.13;2.10;;;17.00;92.60;;;;;;4954928;28;101490;-67
2022/07/08 00:17:37;;;;;;;7.03;3.60;;;17.00;92.50;;;;;;4955663;28;99072;-68
2022/07/08 00:20:05;;;;;;;4.75;2.50;;;16.90;92.50;;;;;;4955755;28;97861;-67
2022/07/08 00:22:33;;;;;;;8.27;2.15;;;16.90;92.70;;;;;;4972621;28;99474;-68
2022/07/08 00:25:00;;;;;;;8.10;2.97;;;16.90;92.70;;;;;;4954625;28;101599;-68
2022/07/08 00:27:27;;;;;;;8.55;2.67;;;16.90;92.70;;;;;;4972936;28;100143;-68
2022/07/08 00:29:54;;;;;;;11.88;2.28;;;16.90;92.80;;;;;;4972628;28;98523;-68
2022/07/08 00:32:21;;;;;;;7.65;3.30;;;16.90;92.90;;;;;;4972699;28;99080;-68
2022/07/08 00:34:49;;;;;;;8.85;2.45;;;16.80;92.90;;;;;;4972289;28;99066;-68
2022/07/08 00:37:17;;;;;;;9.25;2.17;;;16.90;92.90;;;;;;4972607;28;99246;-67
2022/07/08 00:39:44;;;;;;;7.32;2.55;;;16.80;93.00;;;;;;4955326;28;98595;-68
2022/07/08 00:42:11;;;;;;;10.82;2.58;;;16.80;93.10;;;;;;4972091;28;99452;-68
2022/07/08 00:44:38;;;;;;;6.70;2.55;;;16.80;93.10;;;;;;4954881;28;102731;-68
2022/07/08 00:47:05;;;;;;;8.07;1.77;;;16.80;93.40;;;;;;4955324;28;99200;-68
2022/07/08 00:49:32;;;;;;;13.90;3.83;;;16.80;93.20;;;;;;4955076;28;98580;-68
2022/07/08 00:51:59;;;;;;;8.25;1.92;;;16.80;93.20;;;;;;4971876;28;99960;-67
2022/07/08 00:54:27;;;;;;;11.38;2.60;;;16.80;93.20;;;;;;4954854;28;99677;-68
2022/07/08 00:56:55;;;;;;;9.13;2.17;;;16.80;93.20;;;;;;4972678;28;98571;-68
2022/07/08 00:59:23;;;;;;;10.40;2.60;;;16.90;93.20;;;;;;4972729;28;98590;-68
2022/07/08 01:01:50;;;;;;;15.48;2.60;;;16.90;93.20;;;;;;4950887;28;99317;-68
2022/07/08 01:04:17;;;;;;;7.75;2.30;;;16.90;93.20;;;;;;4951092;28;104459;-68
2022/07/08 01:06:45;;;;;;;12.07;2.92;;;16.90;93.30;;;;;;4951499;28;98624;-67
2022/07/08 01:09:14;;;;;;;8.57;1.95;;;16.90;93.30;;;;;;4952838;28;98448;-67
2022/07/08 01:11:45;;;;;;;8.10;2.45;;;16.90;93.30;;;;;;4952455;28;99346;-68
2022/07/08 01:14:14;;;;;;;4.93;1.98;;;16.90;93.30;;;;;;4934875;28;101545;-68
2022/07/08 01:16:41;;;;;;;7.85;2.72;;;16.90;93.40;;;;;;4952079;28;99192;-68
2022/07/08 01:19:08;;;;;;;10.00;2.13;;;16.90;93.30;;;;;;4935125;28;98508;-68
2022/07/08 01:21:35;;;;;;;6.53;1.83;;;16.90;93.30;;;;;;4951145;28;101849;-68
2022/07/08 01:24:02;;;;;;;6.05;2.65;;;16.90;93.30;;;;;;4952010;28;98497;-68
2022/07/08 01:26:30;;;;;;;9.23;3.33;;;16.80;93.40;;;;;;4951880;28;98587;-68
2022/07/08 01:28:57;;;;;;;7.63;2.63;;;16.80;93.30;;;;;;4952829;28;98544;-68
2022/07/08 01:31:24;;;;;;;7.55;3.92;;;16.80;93.30;;;;;;4951378;28;99260;-68
2022/07/08 01:33:51;;;;;;;6.30;2.92;;;16.80;93.30;;;;;;4951629;28;98697;-68
2022/07/08 01:36:18;;;;;;;6.63;2.67;;;16.80;93.40;;;;;;4952378;28;98597;-67
2022/07/08 01:38:45;;;;;;;6.75;2.15;;;16.70;93.40;;;;;;4935539;28;98652;-68
2022/07/08 01:41:12;;;;;;;6.50;1.95;;;16.70;93.40;;;;;;4951785;28;100110;-68
2022/07/08 01:43:39;;;;;;;6.82;2.35;;;16.70;93.50;;;;;;4934833;28;102232;-68
2022/07/08 01:46:06;;;;;;;9.88;2.08;;;16.60;93.60;;;;;;4953371;28;98642;-68
2022/07/08 01:48:33;;;;;;;13.52;2.72;;;16.50;93.80;;;;;;4956031;28;98476;-68
2022/07/08 01:51:00;;;;;;;10.43;2.10;;;16.40;93.90;;;;;;4954913;28;112701;-68
2022/07/08 01:53:26;;;;;;;10.55;3.55;;;16.40;94.00;;;;;;4955320;28;99000;-68
2022/07/08 01:55:53;;;;;;;8.82;2.47;;;16.40;94.10;;;;;;4956196;28;98490;-68
2022/07/08 01:58:21;;;;;;;5.75;2.13;;;16.40;94.20;;;;;;4938425;28;97768;-68
2022/07/08 02:00:48;;;;;;;8.45;2.08;;;16.40;94.10;;;;;;4953504;28;102069;-68
2022/07/08 02:03:15;;;;;;;6.32;3.15;;;16.40;94.30;;;;;;4953702;28;99104;-68
2022/07/08 02:05:42;;;;;;;6.55;2.80;;;16.30;94.20;;;;;;4955348;28;99331;-68
2022/07/08 02:08:09;;;;;;;5.57;2.10;;;16.30;94.20;;;;;;4954286;28;98721;-68
2022/07/08 02:13:23;;;;;;;9.57;2.70;;;16.20;94.30;;;;;;4933295;28;101620;-67
2022/07/08 02:15:50;;;;;;;10.27;3.03;;;16.10;94.50;;;;;;4955375;28;98507;-68
2022/07/08 02:18:17;;;;;;;9.38;2.00;;;16.00;94.60;;;;;;4906039;28;98608;-68
2022/07/08 02:20:44;;;;;;;7.47;3.05;;;15.90;94.70;;;;;;4953571;28;107564;-68
2022/07/08 02:23:11;;;;;;;9.10;3.63;;;15.90;94.80;;;;;;4953709;28;101704;-68
2022/07/08 02:25:38;;;;;;;7.28;2.30;;;15.80;94.90;;;;;;4953904;28;98612;-67
2022/07/08 02:28:05;;;;;;;13.18;2.72;;;15.80;95.00;;;;;;4955504;28;98522;-67
2022/07/08 02:30:32;;;;;;;9.05;1.95;;;15.70;95.10;;;;;;4953620;28;111662;-67
2022/07/08 02:32:59;;;;;;;7.05;3.25;;;15.70;95.10;;;;;;4955081;28;99794;-68
2022/07/08 02:35:26;;;;;;;10.75;2.83;;;15.70;95.20;;;;;;4955068;28;98595;-68
2022/07/08 02:37:53;;;;;;;8.20;2.17;;;15.70;95.30;;;;;;4937738;28;98562;-68
2022/07/08 02:40:20;;;;;;;3.90;1.52;;;15.60;95.30;;;;;;4954645;28;99314;-68
2022/07/08 02:42:47;;;;;;;6.75;3.08;;;15.60;95.30;;;;;;4953458;28;101457;-68
2022/07/08 02:45:14;;;;;;;8.63;1.70;;;15.50;95.30;;;;;;4937281;28;98571;-67
2022/07/08 02:47:40;;;;;;;5.10;2.25;;;15.50;95.50;;;;;;4954131;28;98062;-68
2022/07/08 02:50:08;;;;;;;5.03;1.98;;;15.50;95.50;;;;;;4955046;28;99337;-68
2022/07/08 02:52:35;;;;;;;6.75;3.15;;;15.40;95.50;;;;;;4953431;28;98905;-68
2022/07/08 02:55:03;;;;;;;7.32;2.60;;;15.30;95.70;;;;;;4953664;28;99237;-68
2022/07/08 02:57:30;;;;;;;8.30;1.90;;;15.30;95.90;;;;;;4954916;28;98522;-68
2022/07/08 02:59:57;;;;;;;6.72;1.63;;;15.20;95.90;;;;;;4954578;28;99243;-67
2022/07/08 03:02:24;;;;;;;7.75;2.95;;;15.20;96.10;;;;;;4970826;28;98997;-68
2022/07/08 03:04:53;;;;;;;4.32;2.42;;;15.20;96.40;;;;;;4974075;28;98574;-67
2022/07/08 03:07:20;;;;;;;5.88;2.95;;;15.10;96.30;;;;;;4974056;28;98542;-68
2022/07/08 03:09:48;;;;;;;7.78;2.55;;;15.10;96.30;;;;;;4956738;28;99029;-67
2022/07/08 03:12:14;;;;;;;8.70;2.53;;;15.10;96.40;;;;;;4973924;28;99147;-68
2022/07/08 03:14:41;;;;;;;5.63;2.08;;;15.10;96.50;;;;;;4974426;28;98553;-68
2022/07/08 03:17:08;;;;;;;10.10;3.10;;;15.00;96.60;;;;;;4956911;28;98507;-68
2022/07/08 03:19:35;;;;;;;7.72;2.20;;;15.00;96.60;;;;;;4973120;28;100053;-68
2022/07/08 03:22:03;;;;;;;9.80;2.47;;;15.00;96.60;;;;;;4955804;28;102303;-68
2022/07/08 03:24:30;;;;;;;10.30;3.03;;;15.00;96.70;;;;;;4956461;28;100408;-68
2022/07/08 03:26:58;;;;;;;7.85;2.33;;;15.00;96.70;;;;;;4956627;28;98535;-68
2022/07/08 03:29:26;;;;;;;9.02;3.90;;;14.90;96.70;;;;;;4973447;28;99275;-68
2022/07/08 03:31:53;;;;;;;6.60;3.20;;;14.90;96.90;;;;;;4956169;28;99175;-67
2022/07/08 03:34:20;;;;;;;8.18;1.90;;;14.90;96.90;;;;;;4973640;28;98609;-68
2022/07/08 03:36:47;;;;;;;8.38;2.40;;;14.90;96.90;;;;;;4956866;28;97899;-68
2022/07/08 03:39:14;;;;;;;8.73;3.75;;;14.90;96.90;;;;;;4973478;28;99233;-68
2022/07/08 03:41:41;;;;;;;8.55;2.53;;;14.90;97.00;;;;;;4955816;28;98942;-68
2022/07/08 03:44:08;;;;;;;14.45;3.58;;;14.90;97.00;;;;;;4973534;28;99275;-68
2022/07/08 03:46:34;;;;;;;11.07;3.17;;;14.90;97.00;;;;;;4955317;28;101030;-67
2022/07/08 03:49:01;;;;;;;8.05;2.33;;;14.90;97.10;;;;;;4956053;28;99374;-68
2022/07/08 03:51:28;;;;;;;7.60;2.88;;;14.90;97.20;;;;;;4955713;28;99068;-67
2022/07/08 03:53:55;;;;;;;4.45;2.92;;;14.90;97.20;;;;;;4973506;28;98485;-67
2022/07/08 03:56:22;;;;;;;9.05;2.55;;;14.90;97.20;;;;;;4956005;28;98569;-68
2022/07/08 03:58:49;;;;;;;5.90;2.00;;;15.00;97.30;;;;;;4955946;28;99373;-68
2022/07/08 04:01:16;;;;;;;6.78;3.22;;;15.20;97.40;;;;;;4972985;28;99084;-68
2022/07/08 04:03:45;;;;;;;7.25;2.47;;;15.60;97.10;;;;;;4955956;28;98500;-67
2022/07/08 04:06:12;;;;;;;7.75;2.00;;;16.20;96.30;;;;;;4973415;28;99169;-68
2022/07/08 04:08:39;;;;;;;9.43;2.90;;;16.80;95.40;;;;;;4971397;28;100063;-68
2022/07/08 04:11:05;;;;;;;7.95;2.67;;;17.30;94.50;;;;;;4971669;28;99726;-67
2022/07/08 04:13:32;;;;;;;7.97;2.33;;;17.70;93.70;;;;;;4973237;28;98753;-68
2022/07/08 04:16:00;;;;;;;6.78;2.17;;;17.90;93.10;;;;;;4973357;28;98531;-67
2022/07/08 04:18:27;;;;;;;6.78;2.80;;;18.00;92.80;;;;;;4972526;28;99336;-68
2022/07/08 04:20:55;;;;;;;6.45;2.13;;;17.90;92.80;;;;;;4955058;28;101781;-68
2022/07/08 04:23:22;;;;;;;8.82;2.15;;;17.80;92.80;;;;;;4939191;28;103372;-68
2022/07/08 04:25:52;;;;;;;9.20;1.90;;;17.70;93.00;;;;;;4973520;28;97805;-68
2022/07/08 04:28:19;;;;;;;8.13;3.30;;;17.50;93.10;;;;;;4955411;28;99201;-68
2022/07/08 04:30:46;;;;;;;8.23;2.50;;;17.40;93.30;;;;;;4922709;28;101552;-68
2022/07/08 04:33:13;;;;;;;7.90;2.00;;;17.30;93.50;;;;;;4955003;28;99249;-67
2022/07/08 04:35:40;;;;;;;6.25;1.95;;;17.30;93.60;;;;;;4972554;28;98597;-67
2022/07/08 04:38:07;;;;;;;8.07;3.35;;;17.20;93.60;;;;;;4955333;28;99302;-68
2022/07/08 04:40:34;;;;;;;6.53;2.90;;;17.10;93.90;;;;;;4954652;28;100220;-68
2022/07/08 04:43:01;;;;;;;7.43;2.60;;;17.10;94.00;;;;;;4973113;28;98571;-68
2022/07/08 04:45:28;;;;;;;10.50;3.25;;;17.10;94.10;;;;;;4972596;28;98500;-68
2022/07/08 04:47:54;;;;;;;9.07;1.85;;;17.10;94.10;;;;;;4972674;28;99605;-68
2022/07/08 04:50:22;;;;;;;4.68;2.30;;;17.10;94.20;;;;;;4972800;28;98937;-67
2022/07/08 04:52:48;;;;;;;7.00;2.78;;;17.10;94.30;;;;;;4955017;28;98576;-67
2022/07/08 04:55:28;;;;;;;7.90;2.20;;;17.00;94.30;;;;;;4954923;28;98616;-68
2022/07/08 04:58:03;;;;;;;6.10;2.65;;;17.10;94.50;;;;;;4940039;28;100156;-68
2022/07/08 05:00:32;;;;;;;7.45;3.03;;;17.10;94.50;;;;;;4971253;28;99703;-67
2022/07/08 05:03:00;;;;;;;7.22;2.10;;;17.00;94.60;;;;;;4955042;28;99027;-68
2022/07/08 05:05:27;;;;;;;6.95;3.42;;;17.00;94.70;;;;;;4954704;28;98715;-68
2022/07/08 05:07:57;;;;;;;9.68;3.60;;;17.10;94.70;;;;;;4971909;28;102292;-67
2022/07/08 05:10:24;;;;;;;9.38;2.92;;;17.10;94.80;;;;;;4954317;28;101160;-68
2022/07/08 05:12:52;;;;;;;9.15;2.42;;;17.20;94.80;;;;;;4954456;28;98565;-68
2022/07/08 05:15:19;;;;;;;10.80;3.22;;;17.30;94.70;;;;;;4972526;28;97782;-68
2022/07/08 05:17:47;;;;;;;12.63;2.33;;;17.60;94.50;;;;;;4953981;28;102002;-67
2022/07/08 05:20:15;;;;;;;7.53;2.35;;;17.80;94.20;;;;;;4973231;28;99089;-67
2022/07/08 05:22:42;;;;;;;6.75;3.38;;;18.00;94.00;;;;;;4941719;28;99865;-68
2022/07/08 05:25:09;;;;;;;9.23;2.67;;;18.10;93.80;;;;;;4975586;28;98576;-68
2022/07/08 05:27:36;;;;;;;9.55;3.05;;;18.30;93.60;;;;;;4975195;28;99352;-68
2022/07/08 05:30:05;;;;;;;10.73;3.20;;;18.50;93.50;;;;;;4957722;28;98963;-68
2022/07/08 05:32:32;;;;;;;11.23;2.70;;;18.70;93.30;;;;;;4941548;28;98758;-68
2022/07/08 05:35:01;;;;;;;10.43;4.00;;;18.80;93.20;;;;;;4975476;28;98475;-68
2022/07/08 05:37:29;;;;;;;6.60;2.88;;;18.90;93.10;;;;;;4957226;28;102188;-67
2022/07/08 05:39:56;;;;;;;13.18;2.50;;;19.00;93.00;;;;;;4975348;28;99115;-68
2022/07/08 05:42:24;;;;;;;9.35;3.38;;;19.10;92.90;;;;;;4957855;28;98615;-68
2022/07/08 05:44:51;;;;;;;10.45;2.47;;;19.20;93.00;;;;;;4975112;28;98651;-68
2022/07/08 05:47:18;;;;;;;8.82;2.25;;;19.40;92.60;;;;;;4974621;28;100145;-68
2022/07/08 05:49:46;;;;;;;8.98;3.75;;;19.60;92.30;;;;;;4941068;28;99684;-68
2022/07/08 05:52:13;;;;;;;10.95;2.88;;;19.70;92.00;;;;;;4975068;28;98529;-68
2022/07/08 05:54:45;;;;;;;6.93;2.08;;;19.90;91.90;;;;;;4956946;28;99077;-68
2022/07/08 05:57:13;;;;;;;9.10;3.67;;;20.00;91.70;;;;;;4957052;28;102384;-67
2022/07/08 05:59:44;;;;;;;7.07;2.90;;;20.10;91.70;;;;;;4956841;28;99075;-68
2022/07/08 06:02:11;;;;;;;9.52;2.58;;;20.30;91.50;;;;;;4974845;28;98483;-68
2022/07/08 06:04:38;;;;;;;6.38;2.22;;;20.40;91.20;;;;;;4975026;28;97855;-68
2022/07/08 06:07:05;;;;;;;6.65;3.13;;;20.50;90.90;;;;;;4956750;28;101794;-68
2022/07/08 06:09:32;;;;;;;7.45;2.38;;;20.70;90.80;;;;;;4956901;28;98955;-68
2022/07/08 06:11:59;;;;;;;10.90;2.53;;;20.90;90.60;;;;;;4956739;28;99275;-68
2022/07/08 06:14:26;;;;;;;7.93;2.00;;;20.90;90.30;;;;;;4974982;28;99022;-68
2022/07/08 06:16:53;;;;;;;9.35;3.35;;;20.90;90.10;;;;;;4939912;28;100250;-67
2022/07/08 06:19:20;;;;;;;11.05;3.17;;;21.00;90.10;;;;;;4956500;28;112527;-68
2022/07/08 06:21:47;;;;;;;9.27;3.03;;;21.00;90.20;;;;;;4940543;28;98848;-68
2022/07/08 06:24:15;;;;;;;8.60;1.90;;;21.00;90.10;;;;;;4956931;28;99109;-68
2022/07/08 06:26:43;;;;;;;6.03;1.83;;;21.00;90.20;;;;;;4973800;28;99336;-68
2022/07/08 06:29:11;;;;;;;8.93;2.05;;;21.10;90.20;;;;;;4974308;28;99602;-68
2022/07/08 06:31:38;;;;;;;8.82;3.30;;;21.20;90.00;;;;;;4974261;28;98523;-68
2022/07/08 06:34:06;;;;;;;9.95;2.72;;;21.20;89.90;;;;;;4974101;28;98559;-68
2022/07/08 06:36:33;;;;;;;6.88;1.98;;;21.30;89.80;;;;;;4939703;28;103271;-68
2022/07/08 06:39:01;;;;;;;10.27;2.50;;;21.30;89.60;;;;;;4973612;28;99776;-68
2022/07/08 06:41:31;;;;;;;9.25;2.97;;;21.40;89.70;;;;;;4956902;28;99087;-68
2022/07/08 06:43:58;;;;;;;7.03;2.65;;;21.40;89.60;;;;;;4973891;28;98511;-68
2022/07/08 06:46:25;;;;;;;9.27;2.60;;;21.50;89.60;;;;;;4940042;28;102145;-68
2022/07/08 06:48:52;;;;;;;5.88;2.05;;;21.60;89.40;;;;;;4973505;28;99145;-68
2022/07/08 06:51:20;;;;;;;9.60;2.75;;;21.70;89.20;;;;;;4956696;28;98634;-68
2022/07/08 06:56:33;;;;;;;10.15;3.03;;;22.00;88.80;;;;;;4973903;28;100428;-68
2022/07/08 06:59:00;;;;;;;7.57;2.10;;;22.10;88.60;;;;;;4939876;28;101651;-68
2022/07/08 07:01:27;;;;;;;8.95;2.30;;;22.10;87.90;;;;;;4973134;28;99291;-68
2022/07/08 07:03:54;;;;;;;7.45;2.80;;;22.10;87.90;;;;;;4973756;28;98704;-68
2022/07/08 07:06:21;;;;;;;8.57;2.28;;;22.10;88.10;;;;;;4956134;28;99329;-67
2022/07/08 07:08:48;;;;;;;10.20;2.13;;;22.20;88.10;;;;;;4955711;28;101711;-68
2022/07/08 07:11:15;;;;;;;9.07;2.92;;;22.30;88.40;;;;;;4973937;28;98562;-68
2022/07/08 07:13:42;;;;;;;9.57;2.50;;;22.30;88.10;;;;;;4973865;28;98942;-68
2022/07/08 07:16:09;;;;;;;9.00;2.55;;;22.40;87.60;;;;;;4973616;28;99346;-68
2022/07/08 07:18:36;;;;;;;6.60;2.10;;;22.50;88.00;;;;;;4956473;28;99094;-68
2022/07/08 07:21:04;;;;;;;11.80;3.70;;;22.70;87.20;;;;;;4973714;28;99453;-68
2022/07/08 07:23:31;;;;;;;11.63;2.17;;;22.80;87.10;;;;;;4973617;28;98534;-68
2022/07/08 07:25:58;;;;;;;6.32;2.10;;;22.90;86.10;;;;;;4972700;28;100141;-68
2022/07/08 07:28:25;;;;;;;8.98;3.38;;;22.80;85.70;;;;;;4973386;28;99898;-68
2022/07/08 07:30:52;;;;;;;12.75;3.22;;;22.80;86.10;;;;;;4956131;28;98642;-68
2022/07/08 07:33:19;;;;;;;11.68;2.83;;;22.70;86.20;;;;;;4973554;28;98532;-68
2022/07/08 07:35:46;;;;;;;8.43;2.72;;;22.70;86.50;;;;;;4973055;28;113320;-68
2022/07/08 07:38:13;;;;;;;8.63;3.00;;;22.70;86.80;;;;;;4955259;28;101684;-68
2022/07/08 07:40:40;;;;;;;11.27;2.60;;;22.60;87.00;;;;;;4973509;28;98577;-68
2022/07/08 07:43:07;;;;;;;9.23;2.20;;;22.60;87.00;;;;;;4972747;28;97918;-68
2022/07/08 07:45:34;;;;;;;10.43;2.50;;;22.60;87.10;;;;;;4955233;28;101013;-68
2022/07/08 07:48:02;;;;;;;9.02;3.75;;;22.60;87.10;;;;;;4938973;28;101760;-68
2022/07/08 07:50:28;;;;;;;6.03;2.50;;;22.60;87.10;;;;;;4955661;28;99315;-68
2022/07/08 07:52:55;;;;;;;8.90;2.13;;;22.60;86.90;;;;;;4973257;28;98575;-68
2022/07/08 07:55:22;;;;;;;9.10;3.58;;;22.60;87.00;;;;;;4955404;28;101768;-68
2022/07/08 07:57:49;;;;;;;9.85;2.40;;;22.50;86.90;;;;;;4972928;28;99027;-68
2022/07/08 08:00:17;;;;;;;8.98;2.70;;;22.60;87.40;;;;;;4973236;28;99346;-68
2022/07/08 08:02:44;;;;;;;9.27;2.38;;;22.70;87.00;;;;;;4933959;28;98565;-68
2022/07/08 08:05:11;;;;;;;7.25;3.35;;;22.80;86.60;;;;;;4932015;28;104927;-68
2022/07/08 08:07:40;;;;;;;11.20;2.72;;;22.90;86.00;;;;;;4934161;28;99085;-68
2022/07/08 08:10:08;;;;;;;7.05;2.22;;;23.00;85.90;;;;;;4934166;28;98926;-68
2022/07/08 08:12:35;;;;;;;9.73;2.80;;;23.00;86.10;;;;;;4932440;28;99493;-68
2022/07/08 08:15:03;;;;;;;7.93;2.58;;;23.10;86.10;;;;;;4933066;28;100123;-68
2022/07/08 08:17:40;;;;;;;9.35;2.45;;;23.10;86.20;;;;;;4933610;28;99780;-68
2022/07/08 08:20:09;;;;;;;7.70;3.13;;;23.20;86.00;;;;;;4932558;28;98509;-68
2022/07/08 08:22:37;;;;;;;7.65;3.47;;;23.00;85.90;;;;;;4933904;28;98887;-68
2022/07/08 08:25:22;;;;;;;10.10;2.25;;;23.00;86.40;;;;;;4933552;28;100315;-68
2022/07/08 08:27:49;;;;;;;12.65;3.42;;;23.00;86.70;;;;;;4932167;28;101685;-68
2022/07/08 08:30:17;;;;;;;8.45;2.60;;;23.00;86.20;;;;;;4932428;28;98615;-68
2022/07/08 08:32:45;;;;;;;8.27;2.20;;;23.00;85.90;;;;;;4932980;28;98426;-68
2022/07/08 08:35:11;;;;;;;6.43;2.40;;;23.00;86.10;;;;;;4931922;28;99459;-68
2022/07/08 08:37:39;;;;;;;4.85;2.55;;;23.10;86.40;;;;;;4933431;28;99110;-68
2022/07/08 08:40:09;;;;;;;7.32;2.15;;;23.10;86.30;;;;;;4931845;28;99279;-68
2022/07/08 08:42:37;;;;;;;7.55;2.10;;;23.20;86.30;;;;;;4933730;28;98515;-68
2022/07/08 08:45:05;;;;;;;8.23;3.75;;;23.30;86.20;;;;;;4932976;28;99390;-68
2022/07/08 08:47:34;;;;;;;5.78;1.83;;;23.50;86.20;;;;;;4931849;28;101965;-68
2022/07/08 08:52:53;;;;;;;6.95;2.88;;;23.70;85.30;;;;;;4932638;28;98585;-68
2022/07/08 08:55:28;;;;;;;11.07;3.60;;;23.70;85.00;;;;;;4932896;28;99350;-68
2022/07/08 08:57:57;;;;;;;10.45;3.72;;;23.90;84.80;;;;;;4932218;28;99109;-68
2022/07/08 09:00:26;;;;;;;5.78;3.45;;;23.90;84.50;;;;;;4934565;28;98447;-68
2022/07/08 09:02:54;;;;;;;6.55;1.73;;;23.90;84.00;;;;;;4972841;28;98866;-68
2022/07/08 09:05:22;;;;;;;7.70;2.53;;;23.90;83.80;;;;;;4971454;28;100082;-68
2022/07/08 09:07:50;;;;;;;5.35;2.25;;;23.90;84.10;;;;;;4971865;28;99697;-68
2022/07/08 09:10:18;;;;;;;5.85;2.80;;;24.00;84.20;;;;;;4955006;28;98532;-68
2022/07/08 09:13:10;;;;;;;6.40;2.38;;;24.00;83.90;;;;;;4972374;28;98599;-68
2022/07/08 09:15:50;;;;;;;6.07;3.65;;;24.20;83.50;;;;;;4954250;28;100343;-68
2022/07/08 09:18:22;;;;;;;9.73;2.67;;;24.10;83.50;;;;;;4971341;28;99449;-68
2022/07/08 09:20:51;;;;;;;7.60;1.73;;;24.00;84.00;;;;;;4954854;28;99273;-68
2022/07/08 09:23:29;;;;;;;8.30;2.63;;;24.00;83.80;;;;;;4972498;28;97838;-68
2022/07/08 09:26:02;;;;;;;5.93;2.58;;;24.00;83.90;;;;;;4954056;28;100619;-68
2022/07/08 09:28:34;;;;;;;5.88;2.33;;;24.00;84.10;;;;;;4953776;28;101654;-68
2022/07/08 09:31:06;;;;;;;7.40;2.60;;;23.90;84.00;;;;;;4971966;28;99267;-68
2022/07/08 09:33:34;;;;;;;7.72;2.53;;;23.80;84.10;;;;;;4972540;28;99009;-68
2022/07/08 09:36:02;;;;;;;5.53;2.80;;;23.80;84.20;;;;;;4953649;28;99339;-68
2022/07/08 09:38:35;;;;;;;4.82;2.55;;;23.70;84.20;;;;;;4971361;28;99938;-68
2022/07/08 09:41:08;;;;;;;6.40;2.73;;;23.70;84.20;;;;;;4972467;28;99310;-68
2022/07/08 09:43:43;;;;;;;7.07;3.10;;;23.70;84.70;;;;;;4954726;28;98649;-68
2022/07/08 09:46:10;;;;;;;4.93;2.28;;;23.60;84.50;;;;;;4953731;28;101847;-68
2022/07/08 09:48:37;;;;;;;5.50;2.20;;;23.60;84.90;;;;;;4971511;28;98963;-68
2022/07/08 09:51:07;;;;;;;6.25;3.25;;;23.60;85.10;;;;;;4954300;28;98531;-68
2022/07/08 09:53:39;;;;;;;6.07;3.47;;;23.60;85.00;;;;;;4971840;28;98585;-68
2022/07/08 09:56:08;;;;;;;9.10;3.25;;;23.60;85.30;;;;;;4971190;28;100177;-68
2022/07/08 09:58:36;;;;;;;5.97;2.38;;;23.60;85.20;;;;;;4953634;28;102051;-68
2022/07/08 10:01:04;;;;;;;8.65;2.65;;;23.70;85.10;;;;;;4953729;28;98838;-68
2022/07/08 10:03:31;;;;;;;6.82;2.65;;;23.80;85.10;;;;;;4938291;28;98532;-68
2022/07/08 10:05:59;;;;;;;8.10;3.55;;;23.80;85.10;;;;;;4953991;28;101880;-68
2022/07/08 10:08:26;;;;;;;7.13;2.90;;;24.00;84.90;;;;;;4974182;28;98943;-68
2022/07/08 10:10:57;;;;;;;8.30;2.40;;;24.20;84.50;;;;;;4975192;28;98500;-68
2022/07/08 10:13:25;;;;;;;5.72;2.05;;;24.40;84.20;;;;;;4975080;28;97793;-68
2022/07/08 10:15:56;;;;;;;6.00;2.40;;;24.50;83.80;;;;;;4973898;28;115861;-68
2022/07/08 10:18:41;;;;;;;9.05;3.38;;;24.60;83.60;;;;;;4974402;28;98937;-68
2022/07/08 10:21:11;;;;;;;7.72;2.83;;;24.70;83.30;;;;;;4974733;28;99310;-68
2022/07/08 10:23:51;;;;;;;8.05;2.22;;;24.50;83.60;;;;;;4974744;28;98505;-68
2022/07/08 10:26:41;;;;;;;6.30;2.78;;;24.50;83.70;;;;;;4957210;28;99021;-68
2022/07/08 10:29:11;;;;;;;6.60;2.72;;;24.50;83.90;;;;;;4940405;28;101573;-68
2022/07/08 10:31:52;;;;;;;7.55;2.55;;;24.40;84.50;;;;;;4957653;28;98545;-68
2022/07/08 10:34:30;;;;;;;9.93;3.10;;;24.40;85.10;;;;;;4957230;28;98577;-68
2022/07/08 10:36:57;;;;;;;10.10;2.60;;;24.50;84.40;;;;;;4974260;28;100212;-68
2022/07/08 10:39:31;;;;;;;5.88;3.10;;;24.50;83.80;;;;;;4956744;28;99128;-68
2022/07/08 10:42:06;;;;;;;5.35;2.35;;;24.60;82.60;;;;;;4956793;28;98606;-68
2022/07/08 10:44:45;;;;;;;6.50;2.58;;;24.90;82.20;;;;;;4956676;28;98622;-68
2022/07/08 10:47:13;;;;;;;4.60;3.30;;;25.10;80.90;;;;;;4955814;28;102565;-68
2022/07/08 10:49:41;;;;;;;6.82;2.22;;;25.30;80.80;;;;;;4956110;28;99807;-68
2022/07/08 10:52:08;;;;;;;7.35;2.60;;;25.60;79.60;;;;;;4974154;28;98432;-68
2022/07/08 10:54:39;;;;;;;8.07;2.25;;;25.90;79.30;;;;;;4956497;28;98586;-68
2022/07/08 10:57:24;;;;;;;5.75;3.30;;;26.20;78.60;;;;;;4955830;28;102152;-68
2022/07/08 11:00:13;;;;;;;8.07;3.40;;;26.50;77.90;;;;;;4973941;28;98822;-68
2022/07/08 11:02:42;;;;;;;6.72;2.30;;;26.70;77.20;;;;;;4973691;28;99052;-69
2022/07/08 11:05:41;;;;;;;4.57;2.53;;;26.70;77.00;;;;;;4956470;28;97838;-68
2022/07/08 11:08:20;;;;;;;7.55;3.45;;;26.80;76.50;;;;;;4973494;28;99358;-68
2022/07/08 11:10:48;;;;;;;5.75;2.30;;;26.90;75.30;;;;;;4955823;28;103208;-68
2022/07/08 11:13:22;;;;;;;6.45;2.30;;;27.10;75.80;;;;;;4955945;28;99268;-68
2022/07/08 11:15:49;;;;;;;7.65;2.60;;;27.40;75.00;;;;;;4956605;28;99059;-68
2022/07/08 11:18:24;;;;;;;5.47;1.92;;;27.40;74.40;;;;;;4954820;28;99327;-68
2022/07/08 11:21:00;;;;;;;4.07;2.20;;;27.50;74.30;;;;;;4956034;28;101753;-68
2022/07/08 11:23:30;;;;;;;7.25;3.22;;;27.60;74.10;;;;;;4940338;28;98526;-68
2022/07/08 11:25:59;;;;;;;5.72;3.50;;;27.60;73.90;;;;;;4956752;28;98586;-68
2022/07/08 11:28:26;;;;;;;4.18;2.10;;;27.90;74.10;;;;;;4955350;28;102091;-69
2022/07/08 11:30:53;;;;;;;5.70;2.17;;;28.00;74.10;;;;;;4973708;28;99604;-68
2022/07/08 11:33:38;;;;;;;7.43;3.75;;;28.20;73.50;;;;;;4956038;28;98568;-68
2022/07/08 11:36:19;;;;;;;7.85;2.42;;;28.40;72.20;;;;;;4973897;28;98992;-68
2022/07/08 11:38:48;;;;;;;7.55;2.90;;;28.40;71.80;;;;;;4954923;28;101228;-68
2022/07/08 11:41:17;;;;;;;6.10;2.88;;;28.40;72.10;;;;;;4955171;28;112947;-68
2022/07/08 11:43:44;;;;;;;6.53;3.10;;;28.40;71.40;;;;;;4973283;28;98522;-68
2022/07/08 11:46:20;;;;;;;4.82;2.17;;;28.50;71.80;;;;;;4973461;28;98438;-68
2022/07/08 11:48:47;;;;;;;6.82;2.65;;;28.70;71.40;;;;;;4973060;28;99288;-68
2022/07/08 11:51:16;;;;;;;4.82;2.08;;;28.70;71.80;;;;;;4939324;28;100081;-68
2022/07/08 11:53:44;;;;;;;5.53;2.33;;;28.80;71.50;;;;;;4955218;28;98584;-68
2022/07/08 11:56:11;;;;;;;3.80;2.10;;;28.80;71.50;;;;;;4973720;28;97742;-68
2022/07/08 11:58:39;;;;;;;5.20;2.97;;;28.70;71.60;;;;;;4955528;28;99404;-68
2022/07/08 12:01:07;;;;;;;5.15;3.03;;;28.80;71.10;;;;;;4954921;28;99086;-68
2022/07/08 12:03:34;;;;;;;6.70;2.70;;;28.80;69.80;;;;;;4954974;28;99794;-69
2022/07/08 12:06:03;;;;;;;7.18;3.13;;;28.80;70.30;;;;;;4955440;28;98706;-68
2022/07/08 12:08:32;;;;;;;5.80;2.20;;;28.80;70.60;;;;;;4972548;28;99270;-68
2022/07/08 12:11:18;;;;;;;4.95;2.10;;;28.90;70.50;;;;;;4938979;28;101433;-68
2022/07/08 12:13:47;;;;;;;4.90;2.40;;;29.10;69.00;;;;;;4955197;28;98486;-68
2022/07/08 12:16:34;;;;;;;4.78;2.88;;;29.20;69.20;;;;;;4973014;28;98702;-68
2022/07/08 12:19:03;;;;;;;7.55;1.98;;;29.50;68.00;;;;;;4954950;28;102566;-69
2022/07/08 12:21:30;;;;;;;3.30;2.10;;;29.40;68.10;;;;;;4972791;28;100010;-68
2022/07/08 12:24:02;;;;;;;5.85;2.75;;;29.50;67.40;;;;;;4955646;28;98590;-68
2022/07/08 12:26:29;;;;;;;5.10;1.97;;;29.60;67.40;;;;;;4955515;28;98656;-68
2022/07/08 12:28:57;;;;;;;5.82;2.15;;;29.60;67.10;;;;;;4971601;28;100106;-68
2022/07/08 12:31:33;;;;;;;6.38;2.85;;;29.60;67.30;;;;;;4972552;28;99483;-68
2022/07/08 12:34:04;;;;;;;4.55;2.58;;;29.80;67.20;;;;;;4955644;28;99169;-68
2022/07/08 12:36:33;;;;;;;5.57;2.30;;;29.90;67.10;;;;;;4972732;28;98523;-68
2022/07/08 12:39:14;;;;;;;5.65;2.10;;;29.90;66.60;;;;;;4954623;28;104339;-68
2022/07/08 12:41:44;;;;;;;8.98;2.38;;;29.90;66.00;;;;;;4972457;28;99149;-68
2022/07/08 12:44:30;;;;;;;3.13;1.90;;;29.70;66.60;;;;;;4954815;28;98743;-68
2022/07/08 12:46:58;;;;;;;5.43;2.13;;;29.70;66.60;;;;;;4973234;28;98324;-68
2022/07/08 12:49:30;;;;;;;4.97;2.42;;;29.60;67.40;;;;;;4972487;28;99213;-68
2022/07/08 12:51:58;;;;;;;4.55;2.40;;;29.60;66.70;;;;;;4972615;28;99841;-68
2022/07/08 12:54:25;;;;;;;5.22;3.58;;;29.50;66.50;;;;;;4972392;28;99227;-68
2022/07/08 12:56:55;;;;;;;3.72;2.25;;;29.50;67.00;;;;;;4972473;28;98557;-68
2022/07/08 12:59:23;;;;;;;5.07;2.78;;;29.50;67.10;;;;;;4954527;28;101797;-68